sensor_id;sensor_type;location;lat;lon;timestamp;pressure;altitude;pressure_sealevel;temperature;humidity
59588;BME280;45412;54.472;18.464;2023-04-27T00:00:48;99722.77;;;2.29;84.30
59588;BME280;45412;54.472;18.464;2023-04-27T00:03:34;99724.23;;;2.28;84.71
59588;BME280;45412;54.472;18.464;2023-04-27T00:06:21;99725.09;;;2.28;84.26
59588;BME280;45412;54.472;18.464;2023-04-27T00:09:08;99722.54;;;2.27;84.32
59588;BME280;45412;54.472;18.464;2023-04-27T00:11:54;99724.45;;;2.27;84.30
59588;BME280;45412;54.472;18.464;2023-04-27T00:14:41;99721.48;;;2.27;84.14
59588;BME280;45412;54.472;18.464;2023-04-27T00:17:27;99722.02;;;2.26;84.48
59588;BME280;45412;54.472;18.464;2023-04-27T00:20:14;99723.64;;;2.25;84.59
59588;BME280;45412;54.472;18.464;2023-04-27T00:23:01;99724.80;;;2.24;84.91
59588;BME280;45412;54.472;18.464;2023-04-27T00:25:47;99729.25;;;2.22;85.12
59588;BME280;45412;54.472;18.464;2023-04-27T00:28:34;99727.09;;;2.19;86.16
59588;BME280;45412;54.472;18.464;2023-04-27T00:31:20;99732.82;;;2.20;85.86
59588;BME280;45412;54.472;18.464;2023-04-27T00:34:08;99732.77;;;2.21;85.89
59588;BME280;45412;54.472;18.464;2023-04-27T00:36:56;99730.14;;;2.21;85.57
59588;BME280;45412;54.472;18.464;2023-04-27T00:39:42;99734.70;;;2.21;86.36
59588;BME280;45412;54.472;18.464;2023-04-27T00:42:28;99738.77;;;2.24;86.38
59588;BME280;45412;54.472;18.464;2023-04-27T00:45:15;99734.23;;;2.24;86.19
59588;BME280;45412;54.472;18.464;2023-04-27T00:48:04;99738.84;;;2.23;86.27
59588;BME280;45412;54.472;18.464;2023-04-27T00:50:50;99740.67;;;2.21;86.24
59588;BME280;45412;54.472;18.464;2023-04-27T00:53:37;99735.73;;;2.18;86.47
59588;BME280;45412;54.472;18.464;2023-04-27T00:56:24;99736.67;;;2.17;86.45
59588;BME280;45412;54.472;18.464;2023-04-27T00:59:11;99738.62;;;2.16;86.39
59588;BME280;45412;54.472;18.464;2023-04-27T01:01:58;99732.55;;;2.15;86.90
59588;BME280;45412;54.472;18.464;2023-04-27T01:04:44;99738.17;;;2.15;86.95
59588;BME280;45412;54.472;18.464;2023-04-27T01:07:31;99739.32;;;2.13;87.30
59588;BME280;45412;54.472;18.464;2023-04-27T01:10:17;99737.70;;;2.10;87.24
59588;BME280;45412;54.472;18.464;2023-04-27T01:13:04;99738.23;;;2.06;87.28
59588;BME280;45412;54.472;18.464;2023-04-27T01:15:51;99737.14;;;2.03;87.98
59588;BME280;45412;54.472;18.464;2023-04-27T01:18:37;99742.30;;;2.01;87.71
59588;BME280;45412;54.472;18.464;2023-04-27T01:21:26;99744.61;;;2.00;87.77
59588;BME280;45412;54.472;18.464;2023-04-27T01:24:12;99745.71;;;1.99;87.86
59588;BME280;45412;54.472;18.464;2023-04-27T01:26:59;99747.31;;;1.99;88.31
59588;BME280;45412;54.472;18.464;2023-04-27T01:29:46;99748.42;;;1.98;88.50
59588;BME280;45412;54.472;18.464;2023-04-27T01:32:36;99748.11;;;1.97;88.51
59588;BME280;45412;54.472;18.464;2023-04-27T01:35:22;99744.71;;;1.95;88.18
59588;BME280;45412;54.472;18.464;2023-04-27T01:38:09;99746.52;;;1.94;88.37
59588;BME280;45412;54.472;18.464;2023-04-27T01:40:56;99748.20;;;1.91;88.92
59588;BME280;45412;54.472;18.464;2023-04-27T01:43:47;99749.96;;;1.91;89.05
59588;BME280;45412;54.472;18.464;2023-04-27T01:46:35;99751.18;;;1.91;89.29
59588;BME280;45412;54.472;18.464;2023-04-27T01:49:21;99756.39;;;1.92;89.90
59588;BME280;45412;54.472;18.464;2023-04-27T01:52:08;99754.97;;;1.92;89.67
59588;BME280;45412;54.472;18.464;2023-04-27T01:54:54;99754.77;;;1.93;89.55
59588;BME280;45412;54.472;18.464;2023-04-27T01:57:42;99757.34;;;1.90;90.13
59588;BME280;45412;54.472;18.464;2023-04-27T02:00:28;99759.33;;;1.89;90.28
59588;BME280;45412;54.472;18.464;2023-04-27T02:03:16;99765.31;;;1.88;90.11
59588;BME280;45412;54.472;18.464;2023-04-27T02:06:03;99761.50;;;1.87;90.37
59588;BME280;45412;54.472;18.464;2023-04-27T02:08:49;99765.48;;;1.88;90.19
59588;BME280;45412;54.472;18.464;2023-04-27T02:11:36;99767.04;;;1.89;91.16
59588;BME280;45412;54.472;18.464;2023-04-27T02:14:23;99767.72;;;1.89;91.00
59588;BME280;45412;54.472;18.464;2023-04-27T02:17:09;99769.27;;;1.90;91.18
59588;BME280;45412;54.472;18.464;2023-04-27T02:19:57;99771.59;;;1.89;90.99
59588;BME280;45412;54.472;18.464;2023-04-27T02:22:46;99772.96;;;1.89;90.98
59588;BME280;45412;54.472;18.464;2023-04-27T02:25:35;99768.10;;;1.88;90.83
59588;BME280;45412;54.472;18.464;2023-04-27T02:28:23;99769.48;;;1.89;91.11
59588;BME280;45412;54.472;18.464;2023-04-27T02:31:10;99765.10;;;1.86;91.28
59588;BME280;45412;54.472;18.464;2023-04-27T02:33:58;99771.23;;;1.89;91.17
59588;BME280;45412;54.472;18.464;2023-04-27T02:36:44;99771.36;;;1.90;90.99
59588;BME280;45412;54.472;18.464;2023-04-27T02:39:31;99773.11;;;1.90;91.06
59588;BME280;45412;54.472;18.464;2023-04-27T02:42:18;99775.98;;;1.88;91.43
59588;BME280;45412;54.472;18.464;2023-04-27T02:45:06;99777.62;;;1.87;91.16
59588;BME280;45412;54.472;18.464;2023-04-27T02:47:53;99775.13;;;1.84;91.71
59588;BME280;45412;54.472;18.464;2023-04-27T02:50:44;99776.64;;;1.81;91.82
59588;BME280;45412;54.472;18.464;2023-04-27T02:53:31;99775.73;;;1.78;91.92
59588;BME280;45412;54.472;18.464;2023-04-27T02:56:17;99777.27;;;1.76;92.51
59588;BME280;45412;54.472;18.464;2023-04-27T02:59:04;99782.80;;;1.73;92.85
59588;BME280;45412;54.472;18.464;2023-04-27T03:01:51;99783.70;;;1.73;92.59
59588;BME280;45412;54.472;18.464;2023-04-27T03:04:37;99783.77;;;1.71;92.30
59588;BME280;45412;54.472;18.464;2023-04-27T03:07:26;99787.45;;;1.71;92.53
59588;BME280;45412;54.472;18.464;2023-04-27T03:10:13;99786.00;;;1.68;93.42
59588;BME280;45412;54.472;18.464;2023-04-27T03:12:59;99787.94;;;1.67;93.16
59588;BME280;45412;54.472;18.464;2023-04-27T03:15:47;99789.89;;;1.67;93.15
59588;BME280;45412;54.472;18.464;2023-04-27T03:18:33;99795.59;;;1.65;93.31
59588;BME280;45412;54.472;18.464;2023-04-27T03:21:21;99796.90;;;1.63;93.21
59588;BME280;45412;54.472;18.464;2023-04-27T03:24:08;99795.11;;;1.60;93.36
59588;BME280;45412;54.472;18.464;2023-04-27T03:26:55;99799.33;;;1.59;94.06
59588;BME280;45412;54.472;18.464;2023-04-27T03:29:41;99797.45;;;1.58;93.56
59588;BME280;45412;54.472;18.464;2023-04-27T03:32:29;99799.27;;;1.57;93.91
59588;BME280;45412;54.472;18.464;2023-04-27T03:35:16;99800.96;;;1.58;94.07
59588;BME280;45412;54.472;18.464;2023-04-27T03:38:04;99801.25;;;1.59;94.17
59588;BME280;45412;54.472;18.464;2023-04-27T03:40:51;99801.96;;;1.59;93.67
59588;BME280;45412;54.472;18.464;2023-04-27T03:43:38;99802.61;;;1.60;93.79
59588;BME280;45412;54.472;18.464;2023-04-27T03:46:24;99806.45;;;1.60;93.79
59588;BME280;45412;54.472;18.464;2023-04-27T03:49:13;99805.16;;;1.62;93.79
59588;BME280;45412;54.472;18.464;2023-04-27T03:52:01;99810.31;;;1.64;93.91
59588;BME280;45412;54.472;18.464;2023-04-27T03:54:48;99813.46;;;1.68;94.45
59588;BME280;45412;54.472;18.464;2023-04-27T03:57:34;99812.91;;;1.73;94.52
59588;BME280;45412;54.472;18.464;2023-04-27T04:00:21;99818.54;;;1.80;94.65
59588;BME280;45412;54.472;18.464;2023-04-27T04:03:07;99821.43;;;1.85;94.82
59588;BME280;45412;54.472;18.464;2023-04-27T04:05:54;99823.95;;;1.92;94.76
59588;BME280;45412;54.472;18.464;2023-04-27T04:08:41;99826.98;;;1.98;94.69
59588;BME280;45412;54.472;18.464;2023-04-27T04:11:27;99827.77;;;2.04;94.68
59588;BME280;45412;54.472;18.464;2023-04-27T04:14:15;99828.30;;;2.11;94.63
59588;BME280;45412;54.472;18.464;2023-04-27T04:17:02;99829.52;;;2.19;94.47
59588;BME280;45412;54.472;18.464;2023-04-27T04:19:48;99833.17;;;2.27;94.28
59588;BME280;45412;54.472;18.464;2023-04-27T04:22:37;99835.08;;;2.35;94.02
59588;BME280;45412;54.472;18.464;2023-04-27T04:25:25;99832.48;;;2.45;93.87
59588;BME280;45412;54.472;18.464;2023-04-27T04:28:11;99836.80;;;2.54;93.63
59588;BME280;45412;54.472;18.464;2023-04-27T04:31:01;99834.38;;;2.64;93.43
59588;BME280;45412;54.472;18.464;2023-04-27T04:33:50;99837.62;;;2.73;93.36
59588;BME280;45412;54.472;18.464;2023-04-27T04:36:37;99839.17;;;2.81;93.38
59588;BME280;45412;54.472;18.464;2023-04-27T04:39:32;99837.89;;;2.89;93.24
59588;BME280;45412;54.472;18.464;2023-04-27T04:42:21;99839.30;;;3.00;92.90
59588;BME280;45412;54.472;18.464;2023-04-27T04:45:15;99842.33;;;3.09;92.61
59588;BME280;45412;54.472;18.464;2023-04-27T04:48:05;99842.39;;;3.22;92.28
59588;BME280;45412;54.472;18.464;2023-04-27T04:50:54;99843.13;;;3.35;91.72
59588;BME280;45412;54.472;18.464;2023-04-27T04:53:43;99839.32;;;3.48;91.33
59588;BME280;45412;54.472;18.464;2023-04-27T04:56:35;99843.23;;;3.61;90.87
59588;BME280;45412;54.472;18.464;2023-04-27T04:59:24;99838.91;;;3.69;90.32
59588;BME280;45412;54.472;18.464;2023-04-27T05:02:13;99837.91;;;3.85;89.86
59588;BME280;45412;54.472;18.464;2023-04-27T05:05:01;99840.66;;;4.02;89.45
59588;BME280;45412;54.472;18.464;2023-04-27T05:07:56;99840.09;;;4.26;88.46
59588;BME280;45412;54.472;18.464;2023-04-27T05:10:50;99837.81;;;4.51;87.07
59588;BME280;45412;54.472;18.464;2023-04-27T05:13:39;99840.86;;;4.72;85.91
59588;BME280;45412;54.472;18.464;2023-04-27T05:16:27;99844.27;;;4.89;84.23
59588;BME280;45412;54.472;18.464;2023-04-27T05:19:17;99850.95;;;5.05;83.54
59588;BME280;45412;54.472;18.464;2023-04-27T05:22:20;99858.59;;;5.31;82.84
59588;BME280;45412;54.472;18.464;2023-04-27T05:25:11;99859.13;;;5.63;81.14
59588;BME280;45412;54.472;18.464;2023-04-27T05:27:57;99858.60;;;6.10;78.34
59588;BME280;45412;54.472;18.464;2023-04-27T05:30:44;99859.61;;;6.83;75.45
59588;BME280;45412;54.472;18.464;2023-04-27T05:33:31;99854.83;;;7.91;72.06
59588;BME280;45412;54.472;18.464;2023-04-27T05:36:18;99855.42;;;9.08;67.18
59588;BME280;45412;54.472;18.464;2023-04-27T05:39:05;99855.90;;;10.31;63.67
59588;BME280;45412;54.472;18.464;2023-04-27T05:41:52;99852.77;;;11.38;59.42
59588;BME280;45412;54.472;18.464;2023-04-27T05:44:39;99845.16;;;12.06;56.01
59588;BME280;45412;54.472;18.464;2023-04-27T05:47:26;99850.63;;;12.69;53.95
59588;BME280;45412;54.472;18.464;2023-04-27T05:50:13;99848.32;;;13.13;50.99
59588;BME280;45412;54.472;18.464;2023-04-27T05:53:00;99853.61;;;13.56;49.17
59588;BME280;45412;54.472;18.464;2023-04-27T05:55:46;99853.80;;;13.98;48.56
59588;BME280;45412;54.472;18.464;2023-04-27T05:58:33;99852.04;;;13.86;47.89
59588;BME280;45412;54.472;18.464;2023-04-27T06:01:22;99848.37;;;13.49;48.50
59588;BME280;45412;54.472;18.464;2023-04-27T06:04:12;99848.79;;;14.07;46.90
59588;BME280;45412;54.472;18.464;2023-04-27T06:06:58;99847.23;;;15.04;45.12
59588;BME280;45412;54.472;18.464;2023-04-27T06:09:45;99847.14;;;15.69;41.40
59588;BME280;45412;54.472;18.464;2023-04-27T06:12:32;99846.71;;;15.38;41.68
59588;BME280;45412;54.472;18.464;2023-04-27T06:15:19;99843.27;;;15.49;40.94
59588;BME280;45412;54.472;18.464;2023-04-27T06:18:06;99845.25;;;15.67;40.44
59588;BME280;45412;54.472;18.464;2023-04-27T06:21:00;99847.15;;;15.29;40.63
59588;BME280;45412;54.472;18.464;2023-04-27T06:23:48;99843.13;;;14.60;41.39
59588;BME280;45412;54.472;18.464;2023-04-27T06:26:35;99844.64;;;14.73;41.37
59588;BME280;45412;54.472;18.464;2023-04-27T06:29:23;99846.05;;;14.54;41.31
59588;BME280;45412;54.472;18.464;2023-04-27T06:32:09;99839.63;;;14.43;41.71
59588;BME280;45412;54.472;18.464;2023-04-27T06:34:56;99829.48;;;14.89;40.33
59588;BME280;45412;54.472;18.464;2023-04-27T06:37:45;99829.89;;;15.38;38.83
59588;BME280;45412;54.472;18.464;2023-04-27T06:40:35;99835.91;;;14.81;38.97
59588;BME280;45412;54.472;18.464;2023-04-27T06:43:24;99834.52;;;14.46;39.92
59588;BME280;45412;54.472;18.464;2023-04-27T06:46:22;99839.87;;;15.03;38.87
59588;BME280;45412;54.472;18.464;2023-04-27T06:49:09;99839.88;;;15.13;37.85
59588;BME280;45412;54.472;18.464;2023-04-27T06:51:56;99841.30;;;14.09;39.75
59588;BME280;45412;54.472;18.464;2023-04-27T06:54:45;99849.30;;;13.19;41.38
59588;BME280;45412;54.472;18.464;2023-04-27T06:57:32;99846.64;;;12.66;42.00
59588;BME280;45412;54.472;18.464;2023-04-27T07:00:20;99844.94;;;12.57;42.46
59588;BME280;45412;54.472;18.464;2023-04-27T07:03:07;99842.41;;;13.25;41.51
59588;BME280;45412;54.472;18.464;2023-04-27T07:05:54;99846.82;;;12.26;42.77
59588;BME280;45412;54.472;18.464;2023-04-27T07:08:42;99857.85;;;11.28;44.91
59588;BME280;45412;54.472;18.464;2023-04-27T07:11:29;99861.20;;;10.47;46.82
59588;BME280;45412;54.472;18.464;2023-04-27T07:14:16;99863.52;;;9.91;48.36
59588;BME280;45412;54.472;18.464;2023-04-27T07:17:02;99863.86;;;9.47;50.22
59588;BME280;45412;54.472;18.464;2023-04-27T07:19:49;99869.41;;;9.03;51.21
59588;BME280;45412;54.472;18.464;2023-04-27T07:22:35;99869.09;;;8.79;52.12
59588;BME280;45412;54.472;18.464;2023-04-27T07:25:22;99871.57;;;8.67;53.28
59588;BME280;45412;54.472;18.464;2023-04-27T07:28:09;99879.36;;;9.45;51.67
59588;BME280;45412;54.472;18.464;2023-04-27T07:30:57;99864.42;;;10.02;48.49
59588;BME280;45412;54.472;18.464;2023-04-27T07:33:45;99864.77;;;9.79;49.12
59588;BME280;45412;54.472;18.464;2023-04-27T07:36:33;99859.91;;;11.66;45.12
59588;BME280;45412;54.472;18.464;2023-04-27T07:39:33;99851.23;;;13.41;41.06
59588;BME280;45412;54.472;18.464;2023-04-27T07:42:21;99873.38;;;14.53;39.33
59588;BME280;45412;54.472;18.464;2023-04-27T07:45:08;99877.73;;;13.46;41.62
59588;BME280;45412;54.472;18.464;2023-04-27T07:47:59;99880.46;;;12.38;43.81
59588;BME280;45412;54.472;18.464;2023-04-27T07:50:45;99872.02;;;11.39;45.93
59588;BME280;45412;54.472;18.464;2023-04-27T07:53:34;99884.94;;;10.66;48.08
59588;BME280;45412;54.472;18.464;2023-04-27T07:56:23;99888.70;;;10.04;49.94
59588;BME280;45412;54.472;18.464;2023-04-27T07:59:10;99894.74;;;9.46;51.56
59588;BME280;45412;54.472;18.464;2023-04-27T08:01:57;99904.23;;;8.90;53.19
59588;BME280;45412;54.472;18.464;2023-04-27T08:05:05;99907.48;;;8.39;55.91
59588;BME280;45412;54.472;18.464;2023-04-27T08:07:53;99913.40;;;7.87;58.66
59588;BME280;45412;54.472;18.464;2023-04-27T08:10:42;99928.36;;;7.43;60.75
59588;BME280;45412;54.472;18.464;2023-04-27T08:13:28;99944.51;;;6.95;62.74
59588;BME280;45412;54.472;18.464;2023-04-27T08:16:16;99940.85;;;6.42;64.20
59588;BME280;45412;54.472;18.464;2023-04-27T08:19:03;99938.33;;;5.93;65.66
59588;BME280;45412;54.472;18.464;2023-04-27T08:21:49;99933.16;;;5.52;66.51
59588;BME280;45412;54.472;18.464;2023-04-27T08:24:37;99934.16;;;5.26;63.90
59588;BME280;45412;54.472;18.464;2023-04-27T08:27:24;99930.65;;;5.35;63.75
59588;BME280;45412;54.472;18.464;2023-04-27T08:30:11;99929.60;;;5.71;63.60
59588;BME280;45412;54.472;18.464;2023-04-27T08:32:58;99929.66;;;6.43;62.68
59588;BME280;45412;54.472;18.464;2023-04-27T08:35:44;99930.73;;;7.78;60.47
59588;BME280;45412;54.472;18.464;2023-04-27T08:38:34;99914.08;;;10.19;54.01
59588;BME280;45412;54.472;18.464;2023-04-27T08:41:22;99904.60;;;12.46;48.57
59588;BME280;45412;54.472;18.464;2023-04-27T08:44:09;99898.14;;;14.45;44.29
59588;BME280;45412;54.472;18.464;2023-04-27T08:47:03;99897.36;;;16.19;38.06
59588;BME280;45412;54.472;18.464;2023-04-27T08:49:50;99894.97;;;17.44;35.66
59588;BME280;45412;54.472;18.464;2023-04-27T08:52:37;99889.11;;;18.59;33.44
59588;BME280;45412;54.472;18.464;2023-04-27T08:55:26;99889.16;;;19.21;30.00
59588;BME280;45412;54.472;18.464;2023-04-27T08:58:13;99889.84;;;19.52;28.83
59588;BME280;45412;54.472;18.464;2023-04-27T09:01:04;99901.11;;;18.60;29.82
59588;BME280;45412;54.472;18.464;2023-04-27T09:03:59;99939.23;;;16.30;35.45
59588;BME280;45412;54.472;18.464;2023-04-27T09:06:51;99944.66;;;13.85;40.43
59588;BME280;45412;54.472;18.464;2023-04-27T09:09:38;99946.35;;;12.08;44.45
59588;BME280;45412;54.472;18.464;2023-04-27T09:12:25;99945.45;;;10.68;48.40
59588;BME280;45412;54.472;18.464;2023-04-27T09:15:12;99948.77;;;9.77;52.20
59588;BME280;45412;54.472;18.464;2023-04-27T09:18:02;99942.28;;;9.24;54.20
59588;BME280;45412;54.472;18.464;2023-04-27T09:20:52;99944.59;;;9.04;55.73
59588;BME280;45412;54.472;18.464;2023-04-27T09:23:44;99939.17;;;9.72;55.38
59588;BME280;45412;54.472;18.464;2023-04-27T09:26:32;99934.83;;;11.63;51.78
59588;BME280;45412;54.472;18.464;2023-04-27T09:29:18;99918.89;;;13.20;47.31
59588;BME280;45412;54.472;18.464;2023-04-27T09:32:17;99913.36;;;14.49;44.19
59588;BME280;45412;54.472;18.464;2023-04-27T09:35:19;99916.73;;;15.82;39.93
59588;BME280;45412;54.472;18.464;2023-04-27T09:38:07;99905.56;;;16.28;38.11
59588;BME280;45412;54.472;18.464;2023-04-27T09:40:56;99905.83;;;16.31;38.21
59588;BME280;45412;54.472;18.464;2023-04-27T09:43:44;99906.34;;;15.94;38.22
59588;BME280;45412;54.472;18.464;2023-04-27T09:46:34;99924.42;;;14.76;39.78
59588;BME280;45412;54.472;18.464;2023-04-27T09:49:21;99925.54;;;13.53;41.33
59588;BME280;45412;54.472;18.464;2023-04-27T09:52:09;99927.83;;;12.27;41.86
59588;BME280;45412;54.472;18.464;2023-04-27T09:54:56;99931.89;;;11.39;44.03
59588;BME280;45412;54.472;18.464;2023-04-27T10:01:20;99929.77;;;10.17;46.94
59588;BME280;45412;54.472;18.464;2023-04-27T10:04:51;99934.30;;;9.97;47.92
59588;BME280;45412;54.472;18.464;2023-04-27T10:07:44;99934.55;;;10.10;47.71
59588;BME280;45412;54.472;18.464;2023-04-27T10:10:48;99933.38;;;10.23;47.45
59588;BME280;45412;54.472;18.464;2023-04-27T10:13:35;99926.96;;;12.20;44.16
59588;BME280;45412;54.472;18.464;2023-04-27T10:16:22;99916.02;;;13.71;40.99
59588;BME280;45412;54.472;18.464;2023-04-27T10:19:08;99902.05;;;14.95;38.09
59588;BME280;45412;54.472;18.464;2023-04-27T10:21:57;99911.04;;;15.77;35.78
59588;BME280;45412;54.472;18.464;2023-04-27T10:24:52;99902.02;;;16.22;35.60
59588;BME280;45412;54.472;18.464;2023-04-27T10:27:39;99917.00;;;15.26;36.22
59588;BME280;45412;54.472;18.464;2023-04-27T10:30:37;99954.44;;;13.74;39.35
59588;BME280;45412;54.472;18.464;2023-04-27T10:33:24;99971.66;;;12.30;43.07
59588;BME280;45412;54.472;18.464;2023-04-27T10:36:14;99951.14;;;11.27;44.72
59588;BME280;45412;54.472;18.464;2023-04-27T10:39:00;99949.91;;;10.61;46.83
59588;BME280;45412;54.472;18.464;2023-04-27T10:41:55;99946.04;;;11.15;48.71
59588;BME280;45412;54.472;18.464;2023-04-27T10:44:41;99932.06;;;13.02;47.16
59588;BME280;45412;54.472;18.464;2023-04-27T10:47:43;99922.92;;;14.53;44.45
59588;BME280;45412;54.472;18.464;2023-04-27T10:50:30;99918.22;;;16.12;40.01
59588;BME280;45412;54.472;18.464;2023-04-27T10:53:17;99913.70;;;16.78;36.89
59588;BME280;45412;54.472;18.464;2023-04-27T10:56:05;99913.55;;;16.73;37.11
59588;BME280;45412;54.472;18.464;2023-04-27T10:58:52;99912.18;;;16.59;38.13
59588;BME280;45412;54.472;18.464;2023-04-27T11:01:39;99905.95;;;17.04;36.27
59588;BME280;45412;54.472;18.464;2023-04-27T11:04:39;99913.14;;;16.06;36.84
59588;BME280;45412;54.472;18.464;2023-04-27T11:07:27;99911.55;;;16.25;36.77
59588;BME280;45412;54.472;18.464;2023-04-27T11:10:18;99909.36;;;17.90;35.65
59588;BME280;45412;54.472;18.464;2023-04-27T11:13:22;99906.29;;;19.16;31.55
59588;BME280;45412;54.472;18.464;2023-04-27T11:16:09;99906.41;;;19.63;27.54
59588;BME280;45412;54.472;18.464;2023-04-27T11:19:04;99899.86;;;20.10;27.84
59588;BME280;45412;54.472;18.464;2023-04-27T11:22:01;99910.90;;;19.93;27.17
59588;BME280;45412;54.472;18.464;2023-04-27T11:24:49;99918.75;;;17.96;26.21
59588;BME280;45412;54.472;18.464;2023-04-27T11:27:40;99918.58;;;17.44;28.03
59588;BME280;45412;54.472;18.464;2023-04-27T11:30:27;99921.03;;;17.46;28.66
59588;BME280;45412;54.472;18.464;2023-04-27T11:33:13;99917.23;;;17.49;28.54
59588;BME280;45412;54.472;18.464;2023-04-27T11:36:00;99925.07;;;17.20;29.15
59588;BME280;45412;54.472;18.464;2023-04-27T11:38:49;99925.42;;;17.40;29.21
59588;BME280;45412;54.472;18.464;2023-04-27T11:41:38;99932.27;;;17.19;28.29
59588;BME280;45412;54.472;18.464;2023-04-27T11:44:26;99929.14;;;16.90;29.11
59588;BME280;45412;54.472;18.464;2023-04-27T11:47:16;99932.08;;;16.70;28.23
59588;BME280;45412;54.472;18.464;2023-04-27T11:50:07;99935.61;;;16.23;27.33
59588;BME280;45412;54.472;18.464;2023-04-27T11:52:59;99939.41;;;15.89;28.41
59588;BME280;45412;54.472;18.464;2023-04-27T11:55:51;99935.98;;;15.27;28.85
59588;BME280;45412;54.472;18.464;2023-04-27T11:58:38;99938.30;;;14.75;29.59
59588;BME280;45412;54.472;18.464;2023-04-27T12:01:25;99939.88;;;14.32;31.19
59588;BME280;45412;54.472;18.464;2023-04-27T12:04:24;99948.46;;;13.81;31.45
59588;BME280;45412;54.472;18.464;2023-04-27T12:07:13;99956.08;;;13.19;32.11
59588;BME280;45412;54.472;18.464;2023-04-27T12:09:59;99954.33;;;12.82;33.33
59588;BME280;45412;54.472;18.464;2023-04-27T12:12:47;99958.14;;;12.86;34.34
59588;BME280;45412;54.472;18.464;2023-04-27T12:15:35;99956.63;;;12.68;33.96
59588;BME280;45412;54.472;18.464;2023-04-27T12:18:21;99960.80;;;12.22;33.55
59588;BME280;45412;54.472;18.464;2023-04-27T12:21:08;99965.90;;;12.00;34.30
59588;BME280;45412;54.472;18.464;2023-04-27T12:23:55;99965.52;;;11.81;34.90
59588;BME280;45412;54.472;18.464;2023-04-27T12:26:41;99967.50;;;11.57;35.33
59588;BME280;45412;54.472;18.464;2023-04-27T12:29:28;99965.97;;;11.56;35.92
59588;BME280;45412;54.472;18.464;2023-04-27T12:32:15;99964.67;;;11.51;35.59
59588;BME280;45412;54.472;18.464;2023-04-27T12:35:01;99972.69;;;11.44;35.52
59588;BME280;45412;54.472;18.464;2023-04-27T12:37:47;99971.11;;;11.39;34.66
59588;BME280;45412;54.472;18.464;2023-04-27T12:40:35;99971.73;;;11.31;35.33
59588;BME280;45412;54.472;18.464;2023-04-27T12:43:22;99966.45;;;11.18;35.41
59588;BME280;45412;54.472;18.464;2023-04-27T12:46:09;99975.15;;;11.22;35.18
59588;BME280;45412;54.472;18.464;2023-04-27T12:48:56;99976.14;;;11.34;36.20
59588;BME280;45412;54.472;18.464;2023-04-27T12:51:42;99981.79;;;11.17;35.96
59588;BME280;45412;54.472;18.464;2023-04-27T12:54:30;99993.23;;;10.83;37.62
59588;BME280;45412;54.472;18.464;2023-04-27T12:57:17;99993.16;;;10.70;38.93
59588;BME280;45412;54.472;18.464;2023-04-27T13:00:06;100002.09;;;10.72;39.28
59588;BME280;45412;54.472;18.464;2023-04-27T13:02:59;99999.61;;;10.83;39.20
59588;BME280;45412;54.472;18.464;2023-04-27T13:05:46;100010.30;;;10.71;38.47
59588;BME280;45412;54.472;18.464;2023-04-27T13:08:36;100005.81;;;10.54;38.02
59588;BME280;45412;54.472;18.464;2023-04-27T13:11:25;100008.91;;;10.50;38.22
59588;BME280;45412;54.472;18.464;2023-04-27T13:14:14;100009.24;;;10.44;37.97
59588;BME280;45412;54.472;18.464;2023-04-27T13:17:01;100016.45;;;10.31;37.92
59588;BME280;45412;54.472;18.464;2023-04-27T13:19:49;100010.27;;;10.21;38.23
59588;BME280;45412;54.472;18.464;2023-04-27T13:22:37;100017.36;;;10.25;38.25
59588;BME280;45412;54.472;18.464;2023-04-27T13:25:25;100014.27;;;10.24;38.13
59588;BME280;45412;54.472;18.464;2023-04-27T13:28:14;100019.06;;;10.29;38.60
59588;BME280;45412;54.472;18.464;2023-04-27T13:31:02;100023.38;;;10.17;37.53
59588;BME280;45412;54.472;18.464;2023-04-27T13:33:49;100028.70;;;10.09;38.20
59588;BME280;45412;54.472;18.464;2023-04-27T13:36:35;100037.42;;;10.04;38.67
59588;BME280;45412;54.472;18.464;2023-04-27T13:39:22;100034.36;;;9.93;40.06
59588;BME280;45412;54.472;18.464;2023-04-27T13:42:10;100034.86;;;10.00;40.32
59588;BME280;45412;54.472;18.464;2023-04-27T13:44:57;100035.81;;;10.04;39.95
59588;BME280;45412;54.472;18.464;2023-04-27T13:47:43;100033.14;;;10.04;40.46
59588;BME280;45412;54.472;18.464;2023-04-27T13:50:30;100030.30;;;10.10;40.95
59588;BME280;45412;54.472;18.464;2023-04-27T13:53:17;100027.41;;;10.08;41.11
59588;BME280;45412;54.472;18.464;2023-04-27T13:56:04;100027.05;;;10.08;41.33
59588;BME280;45412;54.472;18.464;2023-04-27T13:58:50;100026.67;;;9.94;41.29
59588;BME280;45412;54.472;18.464;2023-04-27T14:01:37;100023.99;;;9.61;41.83
59588;BME280;45412;54.472;18.464;2023-04-27T14:04:25;100034.11;;;9.36;42.71
59588;BME280;45412;54.472;18.464;2023-04-27T14:07:11;100040.04;;;9.08;43.44
59588;BME280;45412;54.472;18.464;2023-04-27T14:09:58;100043.02;;;8.98;43.70
59588;BME280;45412;54.472;18.464;2023-04-27T14:12:45;100035.61;;;8.96;44.09
59588;BME280;45412;54.472;18.464;2023-04-27T14:15:32;100036.27;;;9.01;43.74
59588;BME280;45412;54.472;18.464;2023-04-27T14:18:22;100030.14;;;9.13;43.33
59588;BME280;45412;54.472;18.464;2023-04-27T14:21:18;100032.67;;;9.42;43.54
59588;BME280;45412;54.472;18.464;2023-04-27T14:24:05;100028.77;;;9.71;42.24
59588;BME280;45412;54.472;18.464;2023-04-27T14:26:51;100032.67;;;9.87;40.62
59588;BME280;45412;54.472;18.464;2023-04-27T14:29:39;100031.61;;;9.87;39.49
59588;BME280;45412;54.472;18.464;2023-04-27T14:32:26;100030.95;;;10.03;38.25
59588;BME280;45412;54.472;18.464;2023-04-27T14:35:13;100035.54;;;10.03;35.72
59588;BME280;45412;54.472;18.464;2023-04-27T14:38:00;100035.20;;;9.91;35.50
59588;BME280;45412;54.472;18.464;2023-04-27T14:40:49;100037.27;;;9.94;36.33
59588;BME280;45412;54.472;18.464;2023-04-27T14:43:35;100041.95;;;10.12;37.38
59588;BME280;45412;54.472;18.464;2023-04-27T14:46:22;100037.70;;;10.31;37.05
59588;BME280;45412;54.472;18.464;2023-04-27T14:49:10;100036.39;;;10.46;37.11